createdAt,value
2017-05-30T00:02:04.727Z,21.38
2017-05-30T00:04:33.056Z,21.04
2017-05-30T00:07:01.410Z,20.02
2017-05-30T00:09:29.738Z,19.82
2017-05-30T00:11:58.857Z,22.62
2017-05-30T00:14:27.188Z,20.20
2017-05-30T00:16:55.559Z,21.50
2017-05-30T00:19:23.885Z,21.88
2017-05-30T00:21:52.975Z,20.46
2017-05-30T00:24:21.322Z,20.90
2017-05-30T00:26:49.629Z,21.28
2017-05-30T00:29:18.142Z,21.50
2017-05-30T00:31:47.263Z,22.76
2017-05-30T00:34:15.633Z,22.50
2017-05-30T00:36:43.988Z,21.48
2017-05-30T00:39:12.320Z,20.96
2017-05-30T00:41:41.429Z,22.38
2017-05-30T00:44:09.763Z,20.98
2017-05-30T00:46:38.102Z,21.82
2017-05-30T00:49:06.448Z,21.14
2017-05-30T00:51:35.549Z,22.68
2017-05-30T00:54:03.869Z,22.68
2017-05-30T00:56:32.225Z,21.06
2017-05-30T00:59:00.567Z,22.14
2017-05-30T01:01:29.691Z,22.68
2017-05-30T01:03:58.029Z,20.96
2017-05-30T01:06:27.112Z,22.30
2017-05-30T01:08:56.239Z,22.10
2017-05-30T01:11:24.563Z,22.00
2017-05-30T01:13:52.918Z,22.96
2017-05-30T01:16:21.259Z,22.54
2017-05-30T01:18:49.609Z,23.02
2017-05-30T01:21:18.753Z,22.70
2017-05-30T01:23:47.065Z,24.44
2017-05-30T01:26:15.621Z,24.22
2017-05-30T01:28:43.910Z,22.98
2017-05-30T01:31:13.028Z,25.80
2017-05-30T01:33:41.369Z,25.24
2017-05-30T01:36:09.713Z,25.36
2017-05-30T01:38:38.077Z,23.60
2017-05-30T01:41:07.160Z,24.00
2017-05-30T01:43:35.517Z,22.24
2017-05-30T01:46:03.881Z,22.88
2017-05-30T01:48:32.999Z,24.28
2017-05-30T01:51:02.100Z,24.78
2017-05-30T01:53:30.428Z,26.40
2017-05-30T01:55:58.786Z,28.12
2017-05-30T01:58:27.105Z,28.82
2017-05-30T02:00:55.460Z,29.24
2017-05-30T02:03:24.555Z,31.68
2017-05-30T02:05:52.918Z,33.64
2017-05-30T02:08:21.270Z,33.62
2017-05-30T02:10:50.354Z,35.34
2017-05-30T02:13:19.465Z,39.96
2017-05-30T02:15:47.789Z,39.44
2017-05-30T02:18:16.189Z,37.18
2017-05-30T02:20:44.525Z,34.70
2017-05-30T02:23:13.652Z,35.64
2017-05-30T02:25:41.985Z,37.64
2017-05-30T02:28:10.373Z,39.78
2017-05-30T02:30:38.723Z,39.50
2017-05-30T02:33:07.897Z,36.38
2017-05-30T02:35:36.250Z,36.80
2017-05-30T02:38:04.574Z,37.68
2017-05-30T02:40:32.918Z,35.90
2017-05-30T02:43:02.010Z,37.32
2017-05-30T02:45:30.352Z,36.90
2017-05-30T02:47:58.713Z,35.02
2017-05-30T02:50:27.047Z,35.80
2017-05-30T02:52:56.137Z,34.02
2017-05-30T02:55:24.477Z,33.82
2017-05-30T02:57:52.820Z,35.76
2017-05-30T03:00:21.197Z,33.74
2017-05-30T03:02:50.325Z,36.64
2017-05-30T03:05:18.718Z,38.10
2017-05-30T03:07:47.072Z,37.48
2017-05-30T03:10:15.488Z,36.50
2017-05-30T03:12:44.601Z,40.34
2017-05-30T03:15:13.751Z,38.88
2017-05-30T03:17:42.165Z,39.52
2017-05-30T03:20:10.501Z,40.62
2017-05-30T03:22:39.666Z,39.10
2017-05-30T03:25:08.001Z,39.94
2017-05-30T03:27:36.352Z,42.18
2017-05-30T03:30:04.677Z,40.58
2017-05-30T03:32:33.805Z,42.04
2017-05-30T03:35:02.130Z,44.12
2017-05-30T03:37:30.458Z,44.20
2017-05-30T03:39:58.800Z,46.36
2017-05-30T03:42:27.896Z,40.16
2017-05-30T03:44:56.267Z,41.92
2017-05-30T03:47:24.605Z,44.84
2017-05-30T03:49:52.969Z,45.58
2017-05-30T03:52:22.085Z,44.16
2017-05-30T03:54:50.502Z,43.66
2017-05-30T03:57:18.844Z,45.70
2017-05-30T03:59:47.937Z,46.66
2017-05-30T04:02:17.055Z,44.46
2017-05-30T04:04:46.157Z,43.50
2017-05-30T04:07:14.491Z,46.78
2017-05-30T04:09:42.850Z,46.02
2017-05-30T04:12:11.940Z,45.34
2017-05-30T04:14:40.289Z,47.16
2017-05-30T04:17:08.641Z,46.66
2017-05-30T04:19:36.972Z,46.14
2017-05-30T04:22:06.084Z,47.50
2017-05-30T04:24:34.433Z,46.92
2017-05-30T04:27:02.753Z,46.50
2017-05-30T04:29:31.845Z,47.04
2017-05-30T04:32:00.980Z,47.32
2017-05-30T04:34:30.078Z,47.28
2017-05-30T04:36:58.453Z,48.26
2017-05-30T04:39:26.781Z,47.52
2017-05-30T04:41:55.925Z,49.08
2017-05-30T04:44:24.260Z,45.60
2017-05-30T04:46:52.580Z,50.42
2017-05-30T04:49:20.937Z,45.88
2017-05-30T04:51:50.026Z,48.20
2017-05-30T04:54:18.348Z,48.96
2017-05-30T04:56:46.693Z,48.84
2017-05-30T04:59:15.069Z,51.00
2017-05-30T05:01:44.159Z,49.54
2017-05-30T05:04:12.474Z,49.52
2017-05-30T05:06:40.821Z,49.00
2017-05-30T05:09:09.150Z,48.68
2017-05-30T05:11:38.274Z,49.32
2017-05-30T05:14:06.598Z,47.16
2017-05-30T05:16:35.058Z,49.84
2017-05-30T05:19:03.382Z,50.20
2017-05-30T05:21:32.477Z,47.28
2017-05-30T05:24:00.833Z,46.00
2017-05-30T05:26:29.946Z,47.50
2017-05-30T05:28:58.270Z,51.06
2017-05-30T05:31:27.399Z,47.94
2017-05-30T05:33:55.725Z,45.52
2017-05-30T05:36:24.049Z,43.90
2017-05-30T05:38:52.399Z,46.26
2017-05-30T05:41:21.533Z,47.64
2017-05-30T05:43:49.852Z,46.78
2017-05-30T05:46:18.233Z,47.90
2017-05-30T05:48:46.562Z,46.94
2017-05-30T05:51:15.812Z,46.18
2017-05-30T05:53:44.153Z,47.96
2017-05-30T05:56:12.472Z,47.16
2017-05-30T05:58:40.829Z,43.04
2017-05-30T06:01:09.920Z,43.48
2017-05-30T06:03:38.323Z,48.26
2017-05-30T06:06:07.399Z,45.88
2017-05-30T06:08:35.729Z,51.65
2017-05-30T06:11:04.847Z,46.78
2017-05-30T06:13:33.177Z,50.16
2017-05-30T06:16:01.514Z,43.92
2017-05-30T06:18:29.890Z,43.96
2017-05-30T06:20:58.852Z,44.40
2017-05-30T06:23:27.989Z,40.62
2017-05-30T06:25:56.340Z,41.62
2017-05-30T06:28:24.685Z,40.06
2017-05-30T06:30:53.785Z,36.20
2017-05-30T06:33:22.896Z,40.16
2017-05-30T06:35:51.226Z,37.06
2017-05-30T06:38:19.605Z,38.48
2017-05-30T06:40:47.952Z,38.38
2017-05-30T06:43:17.035Z,38.63
2017-05-30T06:45:45.378Z,37.90
2017-05-30T06:48:13.717Z,41.88
2017-05-30T06:50:42.064Z,37.78
2017-05-30T06:53:11.165Z,35.00
2017-05-30T06:55:39.545Z,44.78
2017-05-30T06:58:07.876Z,35.34
2017-05-30T07:00:36.205Z,33.62
2017-05-30T07:03:05.326Z,33.52
2017-05-30T07:05:33.645Z,31.36
2017-05-30T07:08:02.114Z,28.28
2017-05-30T07:10:30.425Z,27.54
2017-05-30T07:12:59.603Z,29.54
2017-05-30T07:15:27.946Z,30.32
2017-05-30T07:17:56.267Z,28.94
2017-05-30T07:20:24.620Z,29.86
2017-05-30T07:22:53.709Z,32.30
2017-05-30T07:25:22.046Z,33.40
2017-05-30T07:27:50.389Z,28.82
2017-05-30T07:30:19.478Z,28.78
2017-05-30T07:32:48.598Z,28.64
2017-05-30T07:35:16.931Z,30.06
2017-05-30T07:37:45.278Z,29.80
2017-05-30T07:40:13.648Z,29.06
2017-05-30T07:42:42.723Z,32.20
2017-05-30T07:45:11.894Z,32.30
2017-05-30T07:47:40.216Z,32.52
2017-05-30T07:50:09.474Z,32.06
2017-05-30T07:52:38.763Z,28.62
2017-05-30T07:55:07.095Z,31.22
2017-05-30T07:57:35.447Z,31.82
2017-05-30T08:00:03.783Z,27.28
2017-05-30T08:02:32.899Z,25.14
2017-05-30T08:05:01.798Z,24.80
2017-05-30T08:07:30.144Z,22.64
2017-05-30T08:09:58.510Z,23.14
2017-05-30T08:12:27.640Z,24.22
2017-05-30T08:14:56.136Z,22.34
2017-05-30T08:17:24.515Z,21.56
2017-05-30T08:19:52.980Z,21.22
2017-05-30T08:22:22.112Z,21.58
2017-05-30T08:24:50.477Z,20.52
2017-05-30T08:27:19.101Z,19.54
2017-05-30T08:29:47.546Z,22.20
2017-05-30T08:32:16.689Z,19.72
2017-05-30T08:34:45.037Z,21.08
2017-05-30T08:37:13.393Z,18.64
2017-05-30T08:39:41.742Z,19.70
2017-05-30T08:42:10.897Z,20.90
2017-05-30T08:44:39.345Z,22.50
2017-05-30T08:47:07.689Z,23.66
2017-05-30T08:49:36.085Z,23.42
2017-05-30T08:52:05.222Z,24.28
2017-05-30T08:54:33.757Z,23.88
2017-05-30T08:57:02.132Z,22.84
2017-05-30T08:59:30.453Z,22.56
2017-05-30T09:01:59.774Z,22.64
2017-05-30T09:04:28.131Z,23.30
2017-05-30T09:06:56.490Z,23.00
2017-05-30T09:09:24.866Z,23.56
2017-05-30T09:11:53.997Z,21.64
2017-05-30T09:14:22.380Z,24.70
2017-05-30T09:16:50.784Z,25.46
2017-05-30T09:19:19.135Z,24.10
2017-05-30T09:21:48.254Z,26.02
2017-05-30T09:24:17.132Z,25.20
2017-05-30T09:26:45.511Z,27.58
2017-05-30T09:29:13.891Z,28.08
2017-05-30T09:31:43.039Z,25.12
2017-05-30T09:34:11.384Z,26.32
2017-05-30T09:36:39.781Z,24.56
2017-05-30T09:39:08.150Z,23.60
2017-05-30T09:41:37.628Z,22.40
2017-05-30T09:44:05.996Z,21.94
2017-05-30T09:46:34.332Z,23.50
2017-05-30T09:49:02.678Z,21.12
2017-05-30T09:51:31.800Z,21.20
2017-05-30T09:54:00.190Z,21.98
2017-05-30T09:56:28.529Z,20.30
2017-05-30T09:58:56.855Z,16.44
2017-05-30T10:01:25.988Z,15.88
2017-05-30T10:03:54.339Z,14.28
2017-05-30T10:06:23.486Z,15.68
2017-05-30T10:08:51.845Z,14.86
2017-05-30T10:11:20.985Z,13.90
2017-05-30T10:13:49.329Z,12.66
2017-05-30T10:16:18.465Z,14.10
2017-05-30T10:18:47.539Z,12.80
2017-05-30T10:21:16.656Z,13.26
2017-05-30T10:23:45.028Z,14.46
2017-05-30T10:26:13.355Z,16.50
2017-05-30T10:28:41.706Z,14.56
2017-05-30T10:31:10.817Z,14.38
2017-05-30T10:33:39.264Z,13.52
2017-05-30T10:36:07.609Z,29.90
2017-05-30T10:38:36.007Z,12.30
2017-05-30T10:41:05.121Z,10.04
2017-05-30T10:43:33.450Z,28.16
2017-05-30T10:46:01.844Z,10.00
2017-05-30T10:48:30.178Z,8.86
2017-05-30T10:50:59.300Z,10.38
2017-05-30T10:53:28.433Z,9.24
2017-05-30T10:55:56.768Z,12.14
2017-05-30T10:58:25.113Z,9.78
2017-05-30T11:00:53.446Z,9.02
2017-05-30T11:03:22.590Z,10.12
2017-05-30T11:05:50.933Z,13.12
2017-05-30T11:08:20.023Z,9.45
2017-05-30T11:10:48.375Z,9.62
2017-05-30T11:13:17.450Z,7.52
2017-05-30T11:15:46.602Z,9.22
2017-05-30T11:18:14.975Z,8.86
2017-05-30T11:20:43.322Z,9.28
2017-05-30T11:23:12.785Z,9.06
2017-05-30T11:25:41.125Z,7.96
2017-05-30T11:28:09.451Z,9.26
2017-05-30T11:30:37.797Z,10.14
2017-05-30T11:33:07.005Z,8.00
2017-05-30T11:35:35.324Z,6.60
2017-05-30T11:38:03.671Z,9.14
2017-05-30T11:40:32.769Z,8.08
2017-05-30T11:43:01.897Z,8.10
2017-05-30T11:45:31.025Z,8.46
2017-05-30T11:47:59.403Z,8.36
2017-05-30T11:50:27.785Z,9.30
2017-05-30T11:52:56.963Z,9.82
2017-05-30T11:55:26.063Z,9.18
2017-05-30T11:57:54.377Z,8.42
2017-05-30T12:00:22.725Z,8.42
2017-05-30T12:02:51.812Z,8.64
2017-05-30T12:05:20.953Z,7.30
2017-05-30T12:07:50.098Z,7.54
2017-05-30T12:10:19.189Z,7.00
2017-05-30T12:12:48.287Z,6.24
2017-05-30T12:15:16.604Z,7.14
2017-05-30T12:17:45.461Z,5.78
2017-05-30T12:20:13.813Z,6.22
2017-05-30T12:22:42.896Z,5.80
2017-05-30T12:25:11.248Z,7.28
2017-05-30T12:27:39.563Z,6.34
2017-05-30T12:30:07.916Z,6.48
2017-05-30T12:32:36.994Z,5.88
2017-05-30T12:35:05.331Z,6.72
2017-05-30T12:37:33.685Z,7.08
2017-05-30T12:40:02.047Z,7.86
2017-05-30T12:42:31.176Z,8.22
2017-05-30T12:44:59.618Z,9.28
2017-05-30T12:47:28.293Z,9.34
2017-05-30T12:49:56.618Z,10.96
2017-05-30T12:52:25.705Z,11.62
2017-05-30T12:54:54.188Z,10.20
2017-05-30T12:57:23.276Z,10.16
2017-05-30T12:59:51.779Z,11.60
2017-05-30T13:02:20.898Z,11.84
2017-05-30T13:04:49.991Z,12.08
2017-05-30T13:07:18.320Z,12.06
2017-05-30T13:09:46.674Z,12.26
2017-05-30T13:12:15.907Z,14.00
2017-05-30T13:14:44.984Z,10.46
2017-05-30T13:17:13.307Z,10.42
2017-05-30T13:19:41.661Z,17.38
2017-05-30T13:22:10.757Z,11.22
2017-05-30T13:24:39.113Z,10.38
2017-05-30T13:27:07.444Z,9.30
2017-05-30T13:29:36.560Z,11.22
2017-05-30T13:32:05.641Z,9.48
2017-05-30T13:34:33.993Z,9.52
2017-05-30T13:37:02.327Z,10.98
2017-05-30T13:39:30.664Z,10.76
2017-05-30T13:41:59.778Z,10.28
2017-05-30T13:44:28.865Z,10.06
2017-05-30T13:46:57.233Z,8.02
2017-05-30T13:49:25.553Z,7.40
2017-05-30T13:51:54.661Z,9.42
2017-05-30T13:54:22.984Z,9.62
2017-05-30T13:56:51.329Z,8.24
2017-05-30T13:59:20.433Z,7.94
2017-05-30T14:01:49.549Z,8.74
2017-05-30T14:04:17.902Z,9.44
2017-05-30T14:06:46.236Z,9.82
2017-05-30T14:09:14.593Z,12.32
2017-05-30T14:11:43.693Z,13.42
2017-05-30T14:14:12.051Z,13.98
2017-05-30T14:16:40.373Z,13.24
2017-05-30T14:19:08.724Z,12.00
2017-05-30T14:21:37.822Z,11.68
2017-05-30T14:24:06.191Z,11.94
2017-05-30T14:26:34.535Z,10.52
2017-05-30T14:29:02.899Z,10.78
2017-05-30T14:31:32.026Z,11.72
2017-05-30T14:34:01.129Z,14.04
2017-05-30T14:36:29.607Z,12.72
2017-05-30T14:38:57.922Z,13.14
2017-05-30T14:41:27.384Z,14.98
2017-05-30T14:43:56.496Z,12.42
2017-05-30T14:46:24.826Z,12.48
2017-05-30T14:48:53.178Z,11.96
2017-05-30T14:51:22.283Z,13.62
2017-05-30T14:53:51.409Z,12.72
2017-05-30T14:56:19.745Z,11.40
2017-05-30T14:58:48.098Z,10.98
2017-05-30T15:01:17.224Z,11.74
2017-05-30T15:03:46.359Z,11.00
2017-05-30T15:06:14.713Z,11.54
2017-05-30T15:08:43.051Z,11.26
2017-05-30T15:11:12.164Z,10.03
2017-05-30T15:13:40.486Z,10.26
2017-05-30T15:16:09.616Z,8.78
2017-05-30T15:18:37.962Z,9.10
2017-05-30T15:21:07.047Z,8.58
2017-05-30T15:23:35.384Z,7.54
2017-05-30T15:26:03.718Z,8.06
2017-05-30T15:28:32.064Z,8.48
2017-05-30T15:31:01.278Z,9.12
2017-05-30T15:33:30.392Z,8.46
2017-05-30T15:35:58.843Z,9.78
2017-05-30T15:38:27.985Z,9.58
2017-05-30T15:40:57.693Z,8.88
2017-05-30T15:43:27.620Z,8.54
2017-05-30T15:45:55.966Z,9.06
2017-05-30T15:48:24.317Z,8.18
2017-05-30T15:50:52.672Z,8.84
2017-05-30T15:53:21.765Z,9.72
2017-05-30T15:55:50.241Z,9.44
2017-05-30T15:58:18.568Z,11.34
2017-05-30T16:00:46.926Z,10.26
2017-05-30T16:03:16.038Z,9.12
2017-05-30T16:05:44.365Z,11.40
2017-05-30T16:08:12.693Z,12.64
2017-05-30T16:10:41.160Z,9.30
2017-05-30T16:13:11.237Z,10.56
2017-05-30T16:15:39.620Z,11.30
2017-05-30T16:18:08.665Z,12.52
2017-05-30T16:20:37.120Z,14.44
2017-05-30T16:23:06.294Z,17.34
2017-05-30T16:25:34.716Z,17.46
2017-05-30T16:28:03.829Z,17.14
2017-05-30T16:30:32.290Z,17.20
2017-05-30T16:33:02.247Z,16.14
2017-05-30T16:35:31.603Z,16.54
2017-05-30T16:37:59.954Z,15.86
2017-05-30T16:40:29.065Z,18.24
2017-05-30T16:42:58.255Z,16.36
2017-05-30T16:45:26.593Z,15.38
2017-05-30T16:47:55.034Z,14.78
2017-05-30T16:50:23.395Z,16.02
2017-05-30T16:52:52.505Z,15.12
2017-05-30T16:55:21.090Z,13.50
2017-05-30T16:57:49.433Z,13.80
2017-05-30T17:00:17.813Z,12.28
2017-05-30T17:02:47.005Z,13.26
2017-05-30T17:05:15.389Z,13.78
2017-05-30T17:07:43.833Z,15.00
2017-05-30T17:10:12.189Z,14.44
2017-05-30T17:12:41.337Z,12.86
2017-05-30T17:15:10.554Z,14.06
2017-05-30T17:17:38.946Z,14.14
2017-05-30T17:20:07.314Z,13.40
2017-05-30T17:22:36.251Z,14.02
2017-05-30T17:25:04.377Z,9.98
2017-05-30T17:27:33.662Z,11.38
2017-05-30T17:30:01.982Z,10.30
2017-05-30T17:32:31.129Z,11.42
2017-05-30T17:34:59.474Z,10.70
2017-05-30T17:37:27.897Z,12.98
2017-05-30T17:39:56.238Z,14.16
2017-05-30T17:42:25.353Z,13.70
2017-05-30T17:44:53.678Z,13.66
2017-05-30T17:47:22.042Z,13.30
2017-05-30T17:49:50.373Z,15.74
2017-05-30T17:52:20.272Z,14.18
2017-05-30T17:54:48.606Z,13.38
2017-05-30T17:57:17.122Z,18.50
2017-05-30T17:59:45.550Z,14.44
2017-05-30T18:02:14.647Z,14.26
2017-05-30T18:04:43.022Z,17.16
2017-05-30T18:07:11.367Z,14.96
2017-05-30T18:09:39.697Z,14.60
2017-05-30T18:12:08.841Z,16.04
2017-05-30T18:14:37.906Z,14.46
2017-05-30T18:17:06.280Z,15.26
2017-05-30T18:19:34.621Z,15.70
2017-05-30T18:22:03.749Z,16.68
2017-05-30T18:24:32.122Z,18.88
2017-05-30T18:27:00.483Z,16.72
2017-05-30T18:29:28.824Z,15.84
2017-05-30T18:32:03.683Z,14.86
2017-05-30T18:34:32.105Z,13.92
2017-05-30T18:37:00.449Z,12.40
2017-05-30T18:39:29.576Z,18.44
2017-05-30T18:41:58.750Z,12.70
2017-05-30T18:44:27.086Z,12.52
2017-05-30T18:46:55.445Z,12.28
2017-05-30T18:49:23.787Z,11.50
2017-05-30T18:51:52.916Z,13.58
2017-05-30T18:54:21.298Z,12.08
2017-05-30T18:56:49.644Z,9.90
2017-05-30T18:59:18.014Z,11.96
2017-05-30T19:01:47.120Z,12.46
2017-05-30T19:04:16.317Z,11.30
2017-05-30T19:06:44.683Z,11.92
2017-05-30T19:09:13.106Z,12.00
2017-05-30T19:11:42.310Z,13.32
2017-05-30T19:14:10.633Z,12.24
2017-05-30T19:16:42.849Z,9.32
2017-05-30T19:19:11.169Z,9.74
2017-05-30T19:21:40.297Z,9.98
2017-05-30T19:24:08.624Z,9.46
2017-05-30T19:26:37.162Z,10.50
2017-05-30T19:29:05.485Z,8.68
2017-05-30T19:31:34.582Z,12.66
2017-05-30T19:34:02.950Z,13.64
2017-05-30T19:36:31.312Z,11.46
2017-05-30T19:38:59.657Z,10.48
2017-05-30T19:41:28.770Z,10.44
2017-05-30T19:43:57.168Z,11.42
2017-05-30T19:46:25.526Z,9.82
2017-05-30T19:48:53.878Z,13.92
2017-05-30T19:51:22.948Z,8.88
2017-05-30T19:53:52.213Z,10.48
2017-05-30T19:56:20.570Z,8.84
2017-05-30T19:58:48.911Z,10.74
2017-05-30T20:01:18.009Z,7.32
2017-05-30T20:03:46.375Z,10.68
2017-05-30T20:06:14.693Z,8.14
2017-05-30T20:08:43.072Z,10.14
2017-05-30T20:11:12.162Z,7.48
2017-05-30T20:13:40.517Z,10.08
2017-05-30T20:16:08.868Z,6.58
2017-05-30T20:18:37.214Z,6.46
2017-05-30T20:21:06.361Z,9.62
2017-05-30T20:23:34.897Z,5.74
2017-05-30T20:26:03.280Z,7.60
2017-05-30T20:28:31.609Z,7.36
2017-05-30T20:31:00.845Z,6.94
2017-05-30T20:33:29.937Z,7.92
2017-05-30T20:35:58.303Z,6.42
2017-05-30T20:38:27.225Z,6.10
2017-05-30T20:40:55.606Z,7.76
2017-05-30T20:43:24.726Z,9.80
2017-05-30T20:45:53.037Z,9.34
2017-05-30T20:48:21.386Z,8.68
2017-05-30T20:50:49.921Z,9.50
2017-05-30T20:53:19.012Z,7.22
2017-05-30T20:55:47.434Z,8.42
2017-05-30T20:58:15.789Z,7.48
2017-05-30T21:00:44.146Z,9.14
2017-05-30T21:03:13.224Z,9.76
2017-05-30T21:05:41.638Z,6.22
2017-05-30T21:08:09.970Z,11.42
2017-05-30T21:10:39.110Z,9.28
2017-05-30T21:13:08.221Z,10.50
2017-05-30T21:15:36.569Z,10.48
2017-05-30T21:18:04.924Z,9.55
2017-05-30T21:20:33.267Z,8.94
2017-05-30T21:23:02.410Z,9.14
2017-05-30T21:25:30.728Z,9.20
2017-05-30T21:27:59.119Z,10.14
2017-05-30T21:30:27.480Z,10.80
2017-05-30T21:32:56.604Z,12.12
2017-05-30T21:35:29.496Z,10.08
2017-05-30T21:37:58.172Z,12.66
2017-05-30T21:40:26.502Z,11.40
2017-05-30T21:42:54.817Z,12.98
2017-05-30T21:45:23.170Z,11.94
2017-05-30T21:47:51.505Z,12.80
2017-05-30T21:50:20.609Z,12.42
2017-05-30T21:52:49.740Z,10.92
2017-05-30T21:55:23.125Z,13.56
2017-05-30T21:57:51.548Z,15.24
2017-05-30T22:00:19.894Z,13.76
2017-05-30T22:02:49.009Z,11.40
2017-05-30T22:05:17.337Z,12.36
2017-05-30T22:07:45.699Z,12.86
2017-05-30T22:10:14.036Z,12.38
2017-05-30T22:12:43.130Z,13.04
2017-05-30T22:15:11.497Z,14.58
2017-05-30T22:17:39.827Z,12.28
2017-05-30T22:20:08.155Z,17.18
2017-05-30T22:22:37.292Z,12.08
2017-05-30T22:25:05.634Z,15.40
2017-05-30T22:27:33.959Z,12.96
2017-05-30T22:30:02.297Z,15.30
2017-05-30T22:32:31.420Z,12.96
2017-05-30T22:35:00.936Z,12.00
2017-05-30T22:37:29.295Z,14.54
2017-05-30T22:39:57.649Z,12.74
2017-05-30T22:42:26.770Z,16.38
2017-05-30T22:44:55.125Z,15.68
2017-05-30T22:47:24.220Z,13.02
2017-05-30T22:49:52.554Z,15.30
2017-05-30T22:52:21.670Z,12.76
2017-05-30T22:54:50.033Z,10.80
2017-05-30T22:57:18.364Z,13.00
2017-05-30T22:59:46.716Z,12.98
2017-05-30T23:02:15.833Z,12.92
2017-05-30T23:04:44.181Z,12.06
2017-05-30T23:07:12.537Z,14.28
2017-05-30T23:09:40.865Z,14.30
2017-05-30T23:12:09.987Z,15.10
2017-05-30T23:14:38.305Z,11.90
2017-05-30T23:17:06.673Z,12.08
2017-05-30T23:19:35.004Z,12.12
2017-05-30T23:22:04.123Z,19.84
2017-05-30T23:24:32.450Z,12.74
2017-05-30T23:27:00.815Z,13.16
2017-05-30T23:29:29.183Z,14.56
2017-05-30T23:31:58.263Z,13.14
2017-05-30T23:34:26.725Z,16.44
2017-05-30T23:36:55.089Z,14.32
2017-05-30T23:39:23.451Z,14.15
2017-05-30T23:41:52.625Z,14.64
2017-05-30T23:44:20.948Z,13.72
2017-05-30T23:46:49.304Z,13.78
2017-05-30T23:49:17.644Z,17.70
2017-05-30T23:51:46.748Z,17.00
2017-05-30T23:54:15.084Z,17.12
2017-05-30T23:56:44.528Z,18.42
2017-05-30T23:59:13.626Z,17.22
